Terminal Aerodrome Forecast
Issued by NWS Wilmington, OH

Current Version | Previous Version | Graphics & Text | Print | Product List | Glossary On
Versions: 1 2 3 4 5 6 7 8 9 10 11 12 13
000
FTUS41 KILN 151700 RRA
TAFDAY
TAF
KDAY 151742Z 1518/1618 33015G22KT P6SM VCSH OVC045
     FM152200 33012KT P6SM BKN045
     FM160100 35006KT P6SM SCT050
     FM160400 VRB04KT P6SM SKC
     FM160900 14005KT P6SM FEW250
     FM161400 15010KT P6SM SCT250=

USA.gov is the U.S. government's official web portal to all federal, state and local government web resources and services.